sensor_id;sensor_type;location;lat;lon;timestamp;P1;durP1;ratioP1;P2;durP2;ratioP2
32329;SDS011;18807;52.434;13.238;2023-07-08T00:03:09;6.20;;;5.60;;
32329;SDS011;18807;52.434;13.238;2023-07-08T00:10:45;7.47;;;6.03;;
32329;SDS011;18807;52.434;13.238;2023-07-08T00:18:19;6.00;;;5.47;;
32329;SDS011;18807;52.434;13.238;2023-07-08T00:25:54;7.72;;;6.00;;
32329;SDS011;18807;52.434;13.238;2023-07-08T00:33:28;7.13;;;6.45;;
32329;SDS011;18807;52.434;13.238;2023-07-08T00:41:06;6.18;;;5.57;;
32329;SDS011;18807;52.434;13.238;2023-07-08T00:48:44;7.90;;;6.40;;
32329;SDS011;18807;52.434;13.238;2023-07-08T00:56:21;7.15;;;6.45;;
32329;SDS011;18807;52.434;13.238;2023-07-08T01:04:00;6.55;;;5.95;;
32329;SDS011;18807;52.434;13.238;2023-07-08T01:11:39;7.75;;;6.03;;
32329;SDS011;18807;52.434;13.238;2023-07-08T01:19:16;7.03;;;6.28;;
32329;SDS011;18807;52.434;13.238;2023-07-08T01:26:53;9.45;;;6.60;;
32329;SDS011;18807;52.434;13.238;2023-07-08T01:34:28;9.25;;;7.03;;
32329;SDS011;18807;52.434;13.238;2023-07-08T01:42:04;7.47;;;6.77;;
32329;SDS011;18807;52.434;13.238;2023-07-08T01:49:38;7.78;;;6.38;;
32329;SDS011;18807;52.434;13.238;2023-07-08T01:57:15;10.23;;;7.35;;
32329;SDS011;18807;52.434;13.238;2023-07-08T02:04:49;6.88;;;6.18;;
32329;SDS011;18807;52.434;13.238;2023-07-08T02:12:25;8.33;;;6.70;;
32329;SDS011;18807;52.434;13.238;2023-07-08T02:19:58;11.32;;;7.00;;
32329;SDS011;18807;52.434;13.238;2023-07-08T02:27:34;10.43;;;7.50;;
32329;SDS011;18807;52.434;13.238;2023-07-08T02:35:08;8.35;;;6.95;;
32329;SDS011;18807;52.434;13.238;2023-07-08T02:42:44;11.15;;;7.28;;
32329;SDS011;18807;52.434;13.238;2023-07-08T02:50:18;12.45;;;7.82;;
32329;SDS011;18807;52.434;13.238;2023-07-08T02:57:53;7.47;;;6.75;;
32329;SDS011;18807;52.434;13.238;2023-07-08T03:05:27;8.75;;;6.80;;
32329;SDS011;18807;52.434;13.238;2023-07-08T03:13:04;8.73;;;7.13;;
32329;SDS011;18807;52.434;13.238;2023-07-08T03:20:39;7.18;;;6.47;;
32329;SDS011;18807;52.434;13.238;2023-07-08T03:28:14;7.50;;;6.67;;
32329;SDS011;18807;52.434;13.238;2023-07-08T03:44:11;8.98;;;7.20;;
32329;SDS011;18807;52.434;13.238;2023-07-08T03:51:45;14.48;;;8.40;;
32329;SDS011;18807;52.434;13.238;2023-07-08T03:59:20;7.80;;;6.90;;
32329;SDS011;18807;52.434;13.238;2023-07-08T04:06:54;8.55;;;7.03;;
32329;SDS011;18807;52.434;13.238;2023-07-08T04:14:29;10.10;;;7.78;;
32329;SDS011;18807;52.434;13.238;2023-07-08T04:22:03;8.10;;;7.25;;
32329;SDS011;18807;52.434;13.238;2023-07-08T04:29:39;7.45;;;6.47;;
32329;SDS011;18807;52.434;13.238;2023-07-08T04:37:14;7.28;;;6.32;;
32329;SDS011;18807;52.434;13.238;2023-07-08T04:44:49;7.38;;;6.68;;
32329;SDS011;18807;52.434;13.238;2023-07-08T04:52:24;9.15;;;7.63;;
32329;SDS011;18807;52.434;13.238;2023-07-08T04:59:59;8.38;;;6.45;;
32329;SDS011;18807;52.434;13.238;2023-07-08T05:07:33;8.07;;;5.80;;
32329;SDS011;18807;52.434;13.238;2023-07-08T05:15:09;5.75;;;5.00;;
32329;SDS011;18807;52.434;13.238;2023-07-08T05:22:43;5.18;;;4.68;;
32329;SDS011;18807;52.434;13.238;2023-07-08T05:30:19;6.70;;;5.63;;
32329;SDS011;18807;52.434;13.238;2023-07-08T05:37:53;6.35;;;4.97;;
32329;SDS011;18807;52.434;13.238;2023-07-08T05:45:28;7.57;;;4.88;;
32329;SDS011;18807;52.434;13.238;2023-07-08T05:53:02;5.53;;;4.95;;
32329;SDS011;18807;52.434;13.238;2023-07-08T06:00:37;5.40;;;4.25;;
32329;SDS011;18807;52.434;13.238;2023-07-08T06:08:11;7.28;;;4.90;;
32329;SDS011;18807;52.434;13.238;2023-07-08T06:15:47;7.13;;;4.72;;
32329;SDS011;18807;52.434;13.238;2023-07-08T06:23:21;5.20;;;4.70;;
32329;SDS011;18807;52.434;13.238;2023-07-08T06:30:56;4.70;;;4.30;;
32329;SDS011;18807;52.434;13.238;2023-07-08T06:38:31;5.10;;;4.60;;
32329;SDS011;18807;52.434;13.238;2023-07-08T06:46:06;4.63;;;4.22;;
32329;SDS011;18807;52.434;13.238;2023-07-08T06:53:40;4.93;;;4.07;;
32329;SDS011;18807;52.434;13.238;2023-07-08T07:01:15;4.70;;;4.22;;
32329;SDS011;18807;52.434;13.238;2023-07-08T07:08:49;5.03;;;4.00;;
32329;SDS011;18807;52.434;13.238;2023-07-08T07:16:25;8.27;;;4.47;;
32329;SDS011;18807;52.434;13.238;2023-07-08T07:23:59;6.82;;;4.22;;
32329;SDS011;18807;52.434;13.238;2023-07-08T07:31:34;6.70;;;3.95;;
32329;SDS011;18807;52.434;13.238;2023-07-08T07:39:12;5.20;;;4.70;;
32329;SDS011;18807;52.434;13.238;2023-07-08T07:46:47;5.33;;;4.30;;
32329;SDS011;18807;52.434;13.238;2023-07-08T07:54:21;5.97;;;4.38;;
32329;SDS011;18807;52.434;13.238;2023-07-08T08:01:56;6.60;;;4.03;;
32329;SDS011;18807;52.434;13.238;2023-07-08T08:09:30;4.72;;;3.80;;
32329;SDS011;18807;52.434;13.238;2023-07-08T08:17:06;3.80;;;3.50;;
32329;SDS011;18807;52.434;13.238;2023-07-08T08:24:41;4.43;;;4.03;;
32329;SDS011;18807;52.434;13.238;2023-07-08T08:32:17;4.50;;;4.10;;
32329;SDS011;18807;52.434;13.238;2023-07-08T08:39:51;4.43;;;4.05;;
32329;SDS011;18807;52.434;13.238;2023-07-08T08:47:34;4.03;;;3.43;;
32329;SDS011;18807;52.434;13.238;2023-07-08T08:55:11;3.50;;;2.35;;
32329;SDS011;18807;52.434;13.238;2023-07-08T09:10:45;2.65;;;2.40;;
32329;SDS011;18807;52.434;13.238;2023-07-08T09:18:24;3.33;;;3.03;;
32329;SDS011;18807;52.434;13.238;2023-07-08T09:26:04;3.65;;;2.92;;
32329;SDS011;18807;52.434;13.238;2023-07-08T09:33:42;3.88;;;2.95;;
32329;SDS011;18807;52.434;13.238;2023-07-08T09:41:26;3.42;;;2.97;;
32329;SDS011;18807;52.434;13.238;2023-07-08T09:49:14;5.80;;;2.97;;
32329;SDS011;18807;52.434;13.238;2023-07-08T09:56:54;5.07;;;2.88;;
32329;SDS011;18807;52.434;13.238;2023-07-08T10:04:32;3.88;;;3.03;;
32329;SDS011;18807;52.434;13.238;2023-07-08T10:12:08;3.08;;;2.60;;
32329;SDS011;18807;52.434;13.238;2023-07-08T10:19:48;6.63;;;3.15;;
32329;SDS011;18807;52.434;13.238;2023-07-08T10:27:25;6.68;;;2.90;;
32329;SDS011;18807;52.434;13.238;2023-07-08T10:35:09;3.97;;;3.28;;
32329;SDS011;18807;52.434;13.238;2023-07-08T10:42:53;3.55;;;2.80;;
32329;SDS011;18807;52.434;13.238;2023-07-08T10:50:51;3.45;;;3.15;;
32329;SDS011;18807;52.434;13.238;2023-07-08T10:58:39;3.47;;;2.90;;
32329;SDS011;18807;52.434;13.238;2023-07-08T11:06:26;4.18;;;3.50;;
32329;SDS011;18807;52.434;13.238;2023-07-08T11:14:09;3.20;;;2.90;;
32329;SDS011;18807;52.434;13.238;2023-07-08T11:21:56;3.70;;;3.40;;
32329;SDS011;18807;52.434;13.238;2023-07-08T11:29:58;3.42;;;3.13;;
32329;SDS011;18807;52.434;13.238;2023-07-08T11:38:16;3.92;;;3.53;;
32329;SDS011;18807;52.434;13.238;2023-07-08T11:45:53;4.50;;;3.58;;
32329;SDS011;18807;52.434;13.238;2023-07-08T11:53:36;4.85;;;3.65;;
32329;SDS011;18807;52.434;13.238;2023-07-08T12:01:17;5.70;;;3.30;;
32329;SDS011;18807;52.434;13.238;2023-07-08T12:09:00;3.78;;;3.00;;
32329;SDS011;18807;52.434;13.238;2023-07-08T12:16:47;3.65;;;3.30;;
32329;SDS011;18807;52.434;13.238;2023-07-08T12:24:23;3.47;;;3.17;;
32329;SDS011;18807;52.434;13.238;2023-07-08T12:31:59;3.90;;;3.42;;
32329;SDS011;18807;52.434;13.238;2023-07-08T12:39:34;4.13;;;3.72;;
32329;SDS011;18807;52.434;13.238;2023-07-08T12:47:08;3.50;;;3.20;;
32329;SDS011;18807;52.434;13.238;2023-07-08T12:54:50;7.40;;;3.33;;
32329;SDS011;18807;52.434;13.238;2023-07-08T13:02:24;3.40;;;3.03;;
32329;SDS011;18807;52.434;13.238;2023-07-08T13:10:02;4.32;;;3.92;;
32329;SDS011;18807;52.434;13.238;2023-07-08T13:17:37;3.92;;;3.53;;
32329;SDS011;18807;52.434;13.238;2023-07-08T13:33:44;3.55;;;3.03;;
32329;SDS011;18807;52.434;13.238;2023-07-08T13:49:56;4.32;;;3.20;;
32329;SDS011;18807;52.434;13.238;2023-07-08T13:57:44;4.45;;;3.97;;
32329;SDS011;18807;52.434;13.238;2023-07-08T14:06:04;4.15;;;3.63;;
32329;SDS011;18807;52.434;13.238;2023-07-08T14:14:28;4.57;;;3.40;;
32329;SDS011;18807;52.434;13.238;2023-07-08T14:22:23;4.57;;;3.35;;
32329;SDS011;18807;52.434;13.238;2023-07-08T14:30:24;4.95;;;3.67;;
32329;SDS011;18807;52.434;13.238;2023-07-08T14:39:08;4.95;;;3.65;;
32329;SDS011;18807;52.434;13.238;2023-07-08T14:46:57;4.03;;;3.63;;
32329;SDS011;18807;52.434;13.238;2023-07-08T14:55:08;4.05;;;3.42;;
32329;SDS011;18807;52.434;13.238;2023-07-08T15:03:23;4.88;;;3.67;;
32329;SDS011;18807;52.434;13.238;2023-07-08T15:11:42;3.90;;;3.50;;
32329;SDS011;18807;52.434;13.238;2023-07-08T15:28:20;6.95;;;3.92;;
32329;SDS011;18807;52.434;13.238;2023-07-08T15:44:13;3.77;;;3.43;;
32329;SDS011;18807;52.434;13.238;2023-07-08T15:51:49;4.35;;;3.65;;
32329;SDS011;18807;52.434;13.238;2023-07-08T15:59:35;4.03;;;3.63;;
32329;SDS011;18807;52.434;13.238;2023-07-08T16:07:17;4.38;;;3.70;;
32329;SDS011;18807;52.434;13.238;2023-07-08T16:15:11;4.18;;;3.80;;
32329;SDS011;18807;52.434;13.238;2023-07-08T16:23:19;6.97;;;3.65;;
32329;SDS011;18807;52.434;13.238;2023-07-08T16:31:09;3.55;;;3.25;;
32329;SDS011;18807;52.434;13.238;2023-07-08T16:39:14;3.73;;;3.43;;
32329;SDS011;18807;52.434;13.238;2023-07-08T16:46:57;5.45;;;4.95;;
32329;SDS011;18807;52.434;13.238;2023-07-08T16:55:07;5.03;;;4.53;;
32329;SDS011;18807;52.434;13.238;2023-07-08T17:03:22;4.88;;;3.78;;
32329;SDS011;18807;52.434;13.238;2023-07-08T17:10:58;4.82;;;3.88;;
32329;SDS011;18807;52.434;13.238;2023-07-08T17:26:54;4.20;;;3.80;;
32329;SDS011;18807;52.434;13.238;2023-07-08T17:42:51;4.88;;;3.92;;
32329;SDS011;18807;52.434;13.238;2023-07-08T17:50:36;4.85;;;4.20;;
32329;SDS011;18807;52.434;13.238;2023-07-08T17:58:55;6.88;;;5.47;;
32329;SDS011;18807;52.434;13.238;2023-07-08T18:06:32;5.45;;;4.20;;
32329;SDS011;18807;52.434;13.238;2023-07-08T18:14:09;4.55;;;4.15;;
32329;SDS011;18807;52.434;13.238;2023-07-08T18:22:08;7.40;;;5.38;;
32329;SDS011;18807;52.434;13.238;2023-07-08T18:30:20;5.55;;;5.03;;
32329;SDS011;18807;52.434;13.238;2023-07-08T18:37:55;5.43;;;4.03;;
32329;SDS011;18807;52.434;13.238;2023-07-08T18:45:31;5.18;;;3.47;;
32329;SDS011;18807;52.434;13.238;2023-07-08T18:53:10;4.88;;;3.67;;
32329;SDS011;18807;52.434;13.238;2023-07-08T19:00:48;5.97;;;4.15;;
32329;SDS011;18807;52.434;13.238;2023-07-08T19:08:24;6.55;;;5.30;;
32329;SDS011;18807;52.434;13.238;2023-07-08T19:15:59;6.60;;;4.97;;
32329;SDS011;18807;52.434;13.238;2023-07-08T19:23:34;7.32;;;4.90;;
32329;SDS011;18807;52.434;13.238;2023-07-08T19:31:14;5.90;;;4.95;;
32329;SDS011;18807;52.434;13.238;2023-07-08T19:38:52;5.15;;;4.07;;
32329;SDS011;18807;52.434;13.238;2023-07-08T19:46:27;6.03;;;3.47;;
32329;SDS011;18807;52.434;13.238;2023-07-08T19:54:01;4.63;;;3.22;;
32329;SDS011;18807;52.434;13.238;2023-07-08T20:01:36;3.80;;;3.10;;
32329;SDS011;18807;52.434;13.238;2023-07-08T20:09:11;6.28;;;3.78;;
32329;SDS011;18807;52.434;13.238;2023-07-08T20:16:49;4.97;;;3.10;;
32329;SDS011;18807;52.434;13.238;2023-07-08T20:24:23;4.07;;;3.08;;
32329;SDS011;18807;52.434;13.238;2023-07-08T20:31:58;4.80;;;3.10;;
32329;SDS011;18807;52.434;13.238;2023-07-08T20:39:32;5.32;;;3.13;;
32329;SDS011;18807;52.434;13.238;2023-07-08T20:47:09;4.50;;;3.47;;
32329;SDS011;18807;52.434;13.238;2023-07-08T20:54:47;4.55;;;2.60;;
32329;SDS011;18807;52.434;13.238;2023-07-08T21:02:24;3.90;;;2.83;;
32329;SDS011;18807;52.434;13.238;2023-07-08T21:09:59;3.00;;;2.30;;
32329;SDS011;18807;52.434;13.238;2023-07-08T21:17:34;4.22;;;3.30;;
32329;SDS011;18807;52.434;13.238;2023-07-08T21:25:09;3.75;;;2.28;;
32329;SDS011;18807;52.434;13.238;2023-07-08T21:40:26;3.28;;;2.85;;
32329;SDS011;18807;52.434;13.238;2023-07-08T21:48:10;6.03;;;2.88;;
32329;SDS011;18807;52.434;13.238;2023-07-08T21:55:45;5.80;;;3.20;;
32329;SDS011;18807;52.434;13.238;2023-07-08T22:03:22;4.43;;;3.38;;
32329;SDS011;18807;52.434;13.238;2023-07-08T22:10:58;4.75;;;3.20;;
32329;SDS011;18807;52.434;13.238;2023-07-08T22:26:40;4.40;;;2.85;;
32329;SDS011;18807;52.434;13.238;2023-07-08T22:34:18;2.63;;;2.22;;
32329;SDS011;18807;52.434;13.238;2023-07-08T22:41:53;4.07;;;2.40;;
32329;SDS011;18807;52.434;13.238;2023-07-08T22:49:28;3.60;;;2.92;;
32329;SDS011;18807;52.434;13.238;2023-07-08T22:57:03;3.88;;;2.72;;
32329;SDS011;18807;52.434;13.238;2023-07-08T23:04:38;3.40;;;2.43;;
32329;SDS011;18807;52.434;13.238;2023-07-08T23:12:12;4.25;;;2.90;;
32329;SDS011;18807;52.434;13.238;2023-07-08T23:19:47;3.67;;;2.70;;
32329;SDS011;18807;52.434;13.238;2023-07-08T23:27:21;4.45;;;2.70;;
32329;SDS011;18807;52.434;13.238;2023-07-08T23:34:57;3.97;;;2.58;;
32329;SDS011;18807;52.434;13.238;2023-07-08T23:42:31;3.55;;;3.10;;
32329;SDS011;18807;52.434;13.238;2023-07-08T23:50:08;3.95;;;2.60;;
